sensor_id;sensor_type;location;lat;lon;timestamp;temperature;humidity
70550;DHT22;58101;48.658;2.328;2023-09-12T00:01:05;21.70;99.90
70550;DHT22;58101;48.658;2.328;2023-09-12T00:03:32;21.70;99.90
70550;DHT22;58101;48.658;2.328;2023-09-12T00:05:58;21.70;99.90
70550;DHT22;58101;48.658;2.328;2023-09-12T00:08:25;21.60;99.90
70550;DHT22;58101;48.658;2.328;2023-09-12T00:11:06;21.60;99.90
70550;DHT22;58101;48.658;2.328;2023-09-12T00:13:36;21.60;99.90
70550;DHT22;58101;48.658;2.328;2023-09-12T00:16:01;21.50;99.90
70550;DHT22;58101;48.658;2.328;2023-09-12T00:18:27;21.50;99.90
70550;DHT22;58101;48.658;2.328;2023-09-12T00:20:53;21.50;99.90
70550;DHT22;58101;48.658;2.328;2023-09-12T00:23:21;21.50;99.90
70550;DHT22;58101;48.658;2.328;2023-09-12T00:25:46;21.40;99.90
70550;DHT22;58101;48.658;2.328;2023-09-12T00:28:12;21.40;99.90
70550;DHT22;58101;48.658;2.328;2023-09-12T00:30:38;21.40;99.90
70550;DHT22;58101;48.658;2.328;2023-09-12T00:33:04;21.30;99.90
70550;DHT22;58101;48.658;2.328;2023-09-12T00:35:30;21.20;99.90
70550;DHT22;58101;48.658;2.328;2023-09-12T00:37:56;21.30;99.90
70550;DHT22;58101;48.658;2.328;2023-09-12T00:40:22;21.30;99.90
70550;DHT22;58101;48.658;2.328;2023-09-12T00:42:48;21.30;99.90
70550;DHT22;58101;48.658;2.328;2023-09-12T00:45:13;21.20;99.90
70550;DHT22;58101;48.658;2.328;2023-09-12T00:47:39;21.20;99.90
70550;DHT22;58101;48.658;2.328;2023-09-12T00:50:05;21.20;99.90
70550;DHT22;58101;48.658;2.328;2023-09-12T00:52:33;21.20;99.90
70550;DHT22;58101;48.658;2.328;2023-09-12T00:55:01;21.10;99.90
70550;DHT22;58101;48.658;2.328;2023-09-12T00:57:28;21.10;99.90
70550;DHT22;58101;48.658;2.328;2023-09-12T00:59:56;21.10;99.90
70550;DHT22;58101;48.658;2.328;2023-09-12T01:02:23;21.10;99.90
70550;DHT22;58101;48.658;2.328;2023-09-12T01:04:49;21.00;99.90
70550;DHT22;58101;48.658;2.328;2023-09-12T01:07:15;20.90;99.90
70550;DHT22;58101;48.658;2.328;2023-09-12T01:09:40;21.00;99.90
70550;DHT22;58101;48.658;2.328;2023-09-12T01:12:06;21.00;99.90
70550;DHT22;58101;48.658;2.328;2023-09-12T01:14:32;21.00;99.90
70550;DHT22;58101;48.658;2.328;2023-09-12T01:16:58;21.00;99.90
70550;DHT22;58101;48.658;2.328;2023-09-12T01:19:25;21.00;99.90
70550;DHT22;58101;48.658;2.328;2023-09-12T01:22:07;20.90;99.90
70550;DHT22;58101;48.658;2.328;2023-09-12T01:29:56;20.80;99.90
70550;DHT22;58101;48.658;2.328;2023-09-12T01:32:22;20.80;99.90
70550;DHT22;58101;48.658;2.328;2023-09-12T01:34:47;20.70;99.90
70550;DHT22;58101;48.658;2.328;2023-09-12T01:37:13;20.70;99.90
70550;DHT22;58101;48.658;2.328;2023-09-12T01:39:40;20.70;99.90
70550;DHT22;58101;48.658;2.328;2023-09-12T01:42:08;20.70;99.90
70550;DHT22;58101;48.658;2.328;2023-09-12T01:44:37;20.70;99.90
70550;DHT22;58101;48.658;2.328;2023-09-12T01:47:05;20.60;99.90
70550;DHT22;58101;48.658;2.328;2023-09-12T01:49:35;20.60;99.90
70550;DHT22;58101;48.658;2.328;2023-09-12T01:52:01;20.50;99.90
70550;DHT22;58101;48.658;2.328;2023-09-12T01:54:27;20.50;99.90
70550;DHT22;58101;48.658;2.328;2023-09-12T01:56:54;20.50;99.90
70550;DHT22;58101;48.658;2.328;2023-09-12T01:59:23;20.50;99.90
70550;DHT22;58101;48.658;2.328;2023-09-12T02:01:50;20.50;99.90
70550;DHT22;58101;48.658;2.328;2023-09-12T02:04:15;20.40;99.90
70550;DHT22;58101;48.658;2.328;2023-09-12T02:06:41;20.40;99.90
70550;DHT22;58101;48.658;2.328;2023-09-12T02:09:07;20.40;99.90
70550;DHT22;58101;48.658;2.328;2023-09-12T02:11:33;20.40;99.90
70550;DHT22;58101;48.658;2.328;2023-09-12T02:13:58;20.50;99.90
70550;DHT22;58101;48.658;2.328;2023-09-12T02:16:24;20.50;99.90
70550;DHT22;58101;48.658;2.328;2023-09-12T02:18:49;20.50;99.90
70550;DHT22;58101;48.658;2.328;2023-09-12T02:21:15;20.50;99.90
70550;DHT22;58101;48.658;2.328;2023-09-12T02:23:41;20.50;99.90
70550;DHT22;58101;48.658;2.328;2023-09-12T02:26:07;20.60;99.90
70550;DHT22;58101;48.658;2.328;2023-09-12T02:28:33;20.60;99.90
70550;DHT22;58101;48.658;2.328;2023-09-12T02:30:59;20.60;99.90
70550;DHT22;58101;48.658;2.328;2023-09-12T02:33:24;20.60;99.90
70550;DHT22;58101;48.658;2.328;2023-09-12T02:35:50;20.70;99.90
70550;DHT22;58101;48.658;2.328;2023-09-12T02:38:17;20.60;99.90
70550;DHT22;58101;48.658;2.328;2023-09-12T02:40:43;20.60;99.90
70550;DHT22;58101;48.658;2.328;2023-09-12T02:43:08;20.60;99.90
70550;DHT22;58101;48.658;2.328;2023-09-12T02:45:34;20.60;99.90
70550;DHT22;58101;48.658;2.328;2023-09-12T02:48:00;20.80;99.90
70550;DHT22;58101;48.658;2.328;2023-09-12T02:50:25;20.60;99.90
70550;DHT22;58101;48.658;2.328;2023-09-12T02:52:51;20.60;99.90
70550;DHT22;58101;48.658;2.328;2023-09-12T02:55:16;20.70;99.90
70550;DHT22;58101;48.658;2.328;2023-09-12T02:57:42;20.60;99.90
70550;DHT22;58101;48.658;2.328;2023-09-12T03:00:10;20.60;99.90
70550;DHT22;58101;48.658;2.328;2023-09-12T03:02:36;20.60;99.90
70550;DHT22;58101;48.658;2.328;2023-09-12T03:05:02;20.70;99.90
70550;DHT22;58101;48.658;2.328;2023-09-12T03:07:29;20.60;99.90
70550;DHT22;58101;48.658;2.328;2023-09-12T03:09:55;20.60;99.90
70550;DHT22;58101;48.658;2.328;2023-09-12T03:12:21;20.60;99.90
70550;DHT22;58101;48.658;2.328;2023-09-12T03:14:46;20.60;99.90
70550;DHT22;58101;48.658;2.328;2023-09-12T03:17:12;20.60;99.90
70550;DHT22;58101;48.658;2.328;2023-09-12T03:19:38;20.60;99.90
70550;DHT22;58101;48.658;2.328;2023-09-12T03:22:04;20.60;99.90
70550;DHT22;58101;48.658;2.328;2023-09-12T03:24:30;20.60;99.90
70550;DHT22;58101;48.658;2.328;2023-09-12T03:26:56;20.60;99.90
70550;DHT22;58101;48.658;2.328;2023-09-12T03:29:22;20.60;99.90
70550;DHT22;58101;48.658;2.328;2023-09-12T03:31:48;20.60;99.90
70550;DHT22;58101;48.658;2.328;2023-09-12T03:34:14;20.60;99.90
70550;DHT22;58101;48.658;2.328;2023-09-12T03:36:39;20.60;99.90
70550;DHT22;58101;48.658;2.328;2023-09-12T03:39:05;20.60;99.90
70550;DHT22;58101;48.658;2.328;2023-09-12T03:41:34;20.60;99.90
70550;DHT22;58101;48.658;2.328;2023-09-12T03:44:00;20.60;99.90
70550;DHT22;58101;48.658;2.328;2023-09-12T03:46:25;20.60;99.90
70550;DHT22;58101;48.658;2.328;2023-09-12T03:48:51;20.60;99.90
70550;DHT22;58101;48.658;2.328;2023-09-12T03:51:17;20.60;99.90
70550;DHT22;58101;48.658;2.328;2023-09-12T03:53:42;20.60;99.90
70550;DHT22;58101;48.658;2.328;2023-09-12T03:56:08;20.60;99.90
70550;DHT22;58101;48.658;2.328;2023-09-12T03:58:38;20.60;99.90
70550;DHT22;58101;48.658;2.328;2023-09-12T04:01:05;20.60;99.90
70550;DHT22;58101;48.658;2.328;2023-09-12T04:03:30;20.60;99.90
70550;DHT22;58101;48.658;2.328;2023-09-12T04:05:56;20.60;99.90
70550;DHT22;58101;48.658;2.328;2023-09-12T04:08:21;20.60;99.90
70550;DHT22;58101;48.658;2.328;2023-09-12T04:10:47;20.50;99.90
70550;DHT22;58101;48.658;2.328;2023-09-12T04:13:12;20.50;99.90
70550;DHT22;58101;48.658;2.328;2023-09-12T04:15:38;20.50;99.90
70550;DHT22;58101;48.658;2.328;2023-09-12T04:18:04;20.50;99.90
70550;DHT22;58101;48.658;2.328;2023-09-12T04:20:30;20.50;99.90
70550;DHT22;58101;48.658;2.328;2023-09-12T04:22:56;20.40;99.90
70550;DHT22;58101;48.658;2.328;2023-09-12T04:25:21;20.40;99.90
70550;DHT22;58101;48.658;2.328;2023-09-12T04:27:47;20.40;99.90
70550;DHT22;58101;48.658;2.328;2023-09-12T04:30:13;20.40;99.90
70550;DHT22;58101;48.658;2.328;2023-09-12T04:32:38;20.40;99.90
70550;DHT22;58101;48.658;2.328;2023-09-12T04:35:05;20.40;99.90
70550;DHT22;58101;48.658;2.328;2023-09-12T04:37:30;20.40;99.90
70550;DHT22;58101;48.658;2.328;2023-09-12T04:39:56;20.40;99.90
70550;DHT22;58101;48.658;2.328;2023-09-12T04:42:22;20.40;99.90
70550;DHT22;58101;48.658;2.328;2023-09-12T04:44:48;20.40;99.90
70550;DHT22;58101;48.658;2.328;2023-09-12T04:47:14;20.40;99.90
70550;DHT22;58101;48.658;2.328;2023-09-12T04:49:40;20.40;99.90
70550;DHT22;58101;48.658;2.328;2023-09-12T04:52:06;20.40;99.90
70550;DHT22;58101;48.658;2.328;2023-09-12T04:54:32;20.30;99.90
70550;DHT22;58101;48.658;2.328;2023-09-12T04:56:57;20.30;99.90
70550;DHT22;58101;48.658;2.328;2023-09-12T04:59:23;20.20;99.90
70550;DHT22;58101;48.658;2.328;2023-09-12T05:01:49;20.20;99.90
70550;DHT22;58101;48.658;2.328;2023-09-12T05:04:16;20.20;99.90
70550;DHT22;58101;48.658;2.328;2023-09-12T05:06:41;20.10;99.90
70550;DHT22;58101;48.658;2.328;2023-09-12T05:09:07;20.10;99.90
70550;DHT22;58101;48.658;2.328;2023-09-12T05:11:34;20.00;99.90
70550;DHT22;58101;48.658;2.328;2023-09-12T05:14:00;20.00;99.90
70550;DHT22;58101;48.658;2.328;2023-09-12T05:16:28;20.00;99.90
70550;DHT22;58101;48.658;2.328;2023-09-12T05:18:54;19.90;99.90
70550;DHT22;58101;48.658;2.328;2023-09-12T05:21:20;19.90;99.90
70550;DHT22;58101;48.658;2.328;2023-09-12T05:23:46;19.90;99.90
70550;DHT22;58101;48.658;2.328;2023-09-12T05:26:11;19.90;99.90
70550;DHT22;58101;48.658;2.328;2023-09-12T05:28:37;19.90;99.90
70550;DHT22;58101;48.658;2.328;2023-09-12T05:31:03;19.90;99.90
70550;DHT22;58101;48.658;2.328;2023-09-12T05:33:28;19.90;99.90
70550;DHT22;58101;48.658;2.328;2023-09-12T05:35:54;19.90;99.90
70550;DHT22;58101;48.658;2.328;2023-09-12T05:38:19;19.90;99.90
70550;DHT22;58101;48.658;2.328;2023-09-12T05:40:46;19.90;99.90
70550;DHT22;58101;48.658;2.328;2023-09-12T05:43:12;19.90;99.90
70550;DHT22;58101;48.658;2.328;2023-09-12T05:45:37;20.00;99.90
70550;DHT22;58101;48.658;2.328;2023-09-12T05:48:03;20.00;99.90
70550;DHT22;58101;48.658;2.328;2023-09-12T05:50:30;20.00;99.90
70550;DHT22;58101;48.658;2.328;2023-09-12T05:52:55;20.10;99.90
70550;DHT22;58101;48.658;2.328;2023-09-12T05:55:21;20.10;99.90
70550;DHT22;58101;48.658;2.328;2023-09-12T05:57:48;20.10;99.90
70550;DHT22;58101;48.658;2.328;2023-09-12T06:00:17;20.20;99.90
70550;DHT22;58101;48.658;2.328;2023-09-12T06:02:43;20.30;99.90
70550;DHT22;58101;48.658;2.328;2023-09-12T06:05:09;20.30;99.90
70550;DHT22;58101;48.658;2.328;2023-09-12T06:07:35;20.40;99.90
70550;DHT22;58101;48.658;2.328;2023-09-12T06:10:01;20.50;99.90
70550;DHT22;58101;48.658;2.328;2023-09-12T06:12:27;20.60;99.90
70550;DHT22;58101;48.658;2.328;2023-09-12T06:14:52;20.60;99.90
70550;DHT22;58101;48.658;2.328;2023-09-12T06:17:21;20.70;99.90
70550;DHT22;58101;48.658;2.328;2023-09-12T06:19:47;20.70;99.90
70550;DHT22;58101;48.658;2.328;2023-09-12T06:22:14;20.80;99.90
70550;DHT22;58101;48.658;2.328;2023-09-12T06:24:40;20.80;99.90
70550;DHT22;58101;48.658;2.328;2023-09-12T06:27:06;20.80;99.90
70550;DHT22;58101;48.658;2.328;2023-09-12T06:29:32;20.80;99.90
70550;DHT22;58101;48.658;2.328;2023-09-12T06:31:57;20.70;99.90
70550;DHT22;58101;48.658;2.328;2023-09-12T06:34:23;20.60;99.90
70550;DHT22;58101;48.658;2.328;2023-09-12T06:36:49;20.60;99.90
70550;DHT22;58101;48.658;2.328;2023-09-12T06:39:15;20.60;99.90
70550;DHT22;58101;48.658;2.328;2023-09-12T06:41:40;20.60;99.90
70550;DHT22;58101;48.658;2.328;2023-09-12T06:44:06;20.60;99.90
70550;DHT22;58101;48.658;2.328;2023-09-12T06:46:32;20.70;99.90
70550;DHT22;58101;48.658;2.328;2023-09-12T06:49:01;20.80;99.90
70550;DHT22;58101;48.658;2.328;2023-09-12T06:51:28;20.90;99.90
70550;DHT22;58101;48.658;2.328;2023-09-12T06:53:53;21.00;99.90
70550;DHT22;58101;48.658;2.328;2023-09-12T06:56:19;21.10;99.90
70550;DHT22;58101;48.658;2.328;2023-09-12T06:58:45;21.20;99.90
70550;DHT22;58101;48.658;2.328;2023-09-12T07:01:11;21.30;99.90
70550;DHT22;58101;48.658;2.328;2023-09-12T07:03:37;21.50;99.90
70550;DHT22;58101;48.658;2.328;2023-09-12T07:06:03;21.60;99.90
70550;DHT22;58101;48.658;2.328;2023-09-12T07:08:30;21.80;99.90
70550;DHT22;58101;48.658;2.328;2023-09-12T07:10:56;22.00;99.90
70550;DHT22;58101;48.658;2.328;2023-09-12T07:13:23;22.10;99.90
70550;DHT22;58101;48.658;2.328;2023-09-12T07:15:50;22.20;99.90
70550;DHT22;58101;48.658;2.328;2023-09-12T07:18:16;22.30;99.90
70550;DHT22;58101;48.658;2.328;2023-09-12T07:20:41;22.30;99.90
70550;DHT22;58101;48.658;2.328;2023-09-12T07:23:07;22.30;99.90
70550;DHT22;58101;48.658;2.328;2023-09-12T07:25:40;22.30;99.80
70550;DHT22;58101;48.658;2.328;2023-09-12T07:28:09;22.20;99.20
70550;DHT22;58101;48.658;2.328;2023-09-12T07:30:35;22.20;99.80
70550;DHT22;58101;48.658;2.328;2023-09-12T07:33:03;22.20;99.90
70550;DHT22;58101;48.658;2.328;2023-09-12T07:35:28;22.20;99.90
70550;DHT22;58101;48.658;2.328;2023-09-12T07:37:56;22.30;99.90
70550;DHT22;58101;48.658;2.328;2023-09-12T07:40:21;22.30;99.50
70550;DHT22;58101;48.658;2.328;2023-09-12T07:42:47;22.40;99.30
70550;DHT22;58101;48.658;2.328;2023-09-12T07:45:12;22.40;99.30
70550;DHT22;58101;48.658;2.328;2023-09-12T07:47:39;22.40;99.00
70550;DHT22;58101;48.658;2.328;2023-09-12T07:50:05;22.50;98.60
70550;DHT22;58101;48.658;2.328;2023-09-12T07:52:32;22.50;98.50
70550;DHT22;58101;48.658;2.328;2023-09-12T07:55:04;22.60;97.90
70550;DHT22;58101;48.658;2.328;2023-09-12T07:57:30;22.60;97.80
70550;DHT22;58101;48.658;2.328;2023-09-12T07:59:56;22.60;96.90
70550;DHT22;58101;48.658;2.328;2023-09-12T08:02:22;22.60;96.10
70550;DHT22;58101;48.658;2.328;2023-09-12T08:04:51;22.60;95.80
70550;DHT22;58101;48.658;2.328;2023-09-12T08:07:19;22.60;95.90
70550;DHT22;58101;48.658;2.328;2023-09-12T08:09:52;22.70;96.30
70550;DHT22;58101;48.658;2.328;2023-09-12T08:12:19;22.70;95.90
70550;DHT22;58101;48.658;2.328;2023-09-12T08:14:46;22.80;95.80
70550;DHT22;58101;48.658;2.328;2023-09-12T08:17:12;22.80;95.60
70550;DHT22;58101;48.658;2.328;2023-09-12T08:19:38;22.90;94.90
70550;DHT22;58101;48.658;2.328;2023-09-12T08:22:07;22.90;94.40
70550;DHT22;58101;48.658;2.328;2023-09-12T08:24:33;23.00;94.30
70550;DHT22;58101;48.658;2.328;2023-09-12T08:26:59;22.90;93.60
70550;DHT22;58101;48.658;2.328;2023-09-12T08:29:25;22.90;94.20
70550;DHT22;58101;48.658;2.328;2023-09-12T08:31:50;22.80;93.50
70550;DHT22;58101;48.658;2.328;2023-09-12T08:34:17;22.70;94.40
70550;DHT22;58101;48.658;2.328;2023-09-12T08:36:42;22.70;94.70
70550;DHT22;58101;48.658;2.328;2023-09-12T08:39:14;22.60;94.90
70550;DHT22;58101;48.658;2.328;2023-09-12T08:41:39;22.50;95.40
70550;DHT22;58101;48.658;2.328;2023-09-12T08:44:06;22.40;95.60
70550;DHT22;58101;48.658;2.328;2023-09-12T08:46:32;22.40;95.90
70550;DHT22;58101;48.658;2.328;2023-09-12T08:48:58;22.30;96.40
70550;DHT22;58101;48.658;2.328;2023-09-12T08:51:24;22.20;96.50
70550;DHT22;58101;48.658;2.328;2023-09-12T08:53:50;22.20;96.60
70550;DHT22;58101;48.658;2.328;2023-09-12T08:56:18;22.10;97.10
70550;DHT22;58101;48.658;2.328;2023-09-12T08:58:44;22.10;97.20
70550;DHT22;58101;48.658;2.328;2023-09-12T09:01:13;22.00;97.30
70550;DHT22;58101;48.658;2.328;2023-09-12T09:03:43;22.00;97.40
70550;DHT22;58101;48.658;2.328;2023-09-12T09:06:11;22.00;97.40
70550;DHT22;58101;48.658;2.328;2023-09-12T09:08:37;21.90;97.60
70550;DHT22;58101;48.658;2.328;2023-09-12T09:11:03;21.90;97.60
70550;DHT22;58101;48.658;2.328;2023-09-12T09:13:31;21.90;97.90
70550;DHT22;58101;48.658;2.328;2023-09-12T09:16:13;21.80;97.80
70550;DHT22;58101;48.658;2.328;2023-09-12T09:21:21;21.80;98.60
70550;DHT22;58101;48.658;2.328;2023-09-12T09:23:51;21.70;98.90
70550;DHT22;58101;48.658;2.328;2023-09-12T09:26:17;21.70;99.30
70550;DHT22;58101;48.658;2.328;2023-09-12T09:28:44;21.70;99.50
70550;DHT22;58101;48.658;2.328;2023-09-12T09:31:13;21.60;99.90
70550;DHT22;58101;48.658;2.328;2023-09-12T09:33:40;21.60;99.90
70550;DHT22;58101;48.658;2.328;2023-09-12T09:36:07;21.50;99.90
70550;DHT22;58101;48.658;2.328;2023-09-12T09:38:36;21.40;99.90
70550;DHT22;58101;48.658;2.328;2023-09-12T09:41:06;21.30;99.90
70550;DHT22;58101;48.658;2.328;2023-09-12T09:43:32;21.20;99.90
70550;DHT22;58101;48.658;2.328;2023-09-12T09:45:58;21.10;99.90
70550;DHT22;58101;48.658;2.328;2023-09-12T09:48:25;21.10;99.90
70550;DHT22;58101;48.658;2.328;2023-09-12T09:50:53;21.00;99.90
70550;DHT22;58101;48.658;2.328;2023-09-12T09:53:26;20.90;99.90
70550;DHT22;58101;48.658;2.328;2023-09-12T09:55:51;20.80;99.90
70550;DHT22;58101;48.658;2.328;2023-09-12T09:58:23;20.80;99.90
70550;DHT22;58101;48.658;2.328;2023-09-12T10:00:49;20.70;99.90
70550;DHT22;58101;48.658;2.328;2023-09-12T10:03:18;20.50;99.90
70550;DHT22;58101;48.658;2.328;2023-09-12T10:05:44;20.30;99.90
70550;DHT22;58101;48.658;2.328;2023-09-12T10:08:11;20.30;99.90
70550;DHT22;58101;48.658;2.328;2023-09-12T10:10:43;20.30;99.90
70550;DHT22;58101;48.658;2.328;2023-09-12T10:13:09;20.30;99.90
70550;DHT22;58101;48.658;2.328;2023-09-12T10:15:37;20.40;99.90
70550;DHT22;58101;48.658;2.328;2023-09-12T10:18:08;20.40;99.90
70550;DHT22;58101;48.658;2.328;2023-09-12T10:20:45;20.50;99.90
70550;DHT22;58101;48.658;2.328;2023-09-12T10:23:20;20.50;99.90
70550;DHT22;58101;48.658;2.328;2023-09-12T10:25:49;20.50;99.90
70550;DHT22;58101;48.658;2.328;2023-09-12T10:28:17;20.60;99.90
70550;DHT22;58101;48.658;2.328;2023-09-12T10:30:44;20.60;99.90
70550;DHT22;58101;48.658;2.328;2023-09-12T10:33:11;20.70;99.90
70550;DHT22;58101;48.658;2.328;2023-09-12T10:35:38;20.70;99.90
70550;DHT22;58101;48.658;2.328;2023-09-12T10:38:05;20.80;99.90
70550;DHT22;58101;48.658;2.328;2023-09-12T10:40:36;20.80;99.90
70550;DHT22;58101;48.658;2.328;2023-09-12T10:43:03;20.90;99.90
70550;DHT22;58101;48.658;2.328;2023-09-12T10:45:33;21.00;99.90
70550;DHT22;58101;48.658;2.328;2023-09-12T10:48:00;21.10;99.90
70550;DHT22;58101;48.658;2.328;2023-09-12T10:50:26;21.20;99.90
70550;DHT22;58101;48.658;2.328;2023-09-12T10:52:52;21.30;99.90
70550;DHT22;58101;48.658;2.328;2023-09-12T10:55:18;21.40;99.90
70550;DHT22;58101;48.658;2.328;2023-09-12T10:58:07;21.40;99.90
70550;DHT22;58101;48.658;2.328;2023-09-12T11:00:33;21.50;99.90
70550;DHT22;58101;48.658;2.328;2023-09-12T11:03:35;21.60;99.90
70550;DHT22;58101;48.658;2.328;2023-09-12T11:05:54;21.60;99.90
70550;DHT22;58101;48.658;2.328;2023-09-12T11:08:20;21.60;99.90
70550;DHT22;58101;48.658;2.328;2023-09-12T11:11:19;21.60;99.90
70550;DHT22;58101;48.658;2.328;2023-09-12T11:14:03;21.60;99.90
70550;DHT22;58101;48.658;2.328;2023-09-12T11:16:28;21.70;99.90
70550;DHT22;58101;48.658;2.328;2023-09-12T11:21:43;21.90;99.90
70550;DHT22;58101;48.658;2.328;2023-09-12T11:24:09;22.00;99.90
70550;DHT22;58101;48.658;2.328;2023-09-12T11:26:36;22.10;99.90
70550;DHT22;58101;48.658;2.328;2023-09-12T11:29:17;22.20;99.90
70550;DHT22;58101;48.658;2.328;2023-09-12T11:31:53;22.30;99.90
70550;DHT22;58101;48.658;2.328;2023-09-12T11:34:19;22.40;99.90
70550;DHT22;58101;48.658;2.328;2023-09-12T11:36:46;22.40;99.90
70550;DHT22;58101;48.658;2.328;2023-09-12T11:39:27;22.60;99.90
70550;DHT22;58101;48.658;2.328;2023-09-12T11:41:54;22.70;99.90
70550;DHT22;58101;48.658;2.328;2023-09-12T11:44:21;22.80;99.90
70550;DHT22;58101;48.658;2.328;2023-09-12T11:46:48;22.80;99.90
70550;DHT22;58101;48.658;2.328;2023-09-12T11:49:15;22.90;99.90
70550;DHT22;58101;48.658;2.328;2023-09-12T11:51:51;22.80;99.90
70550;DHT22;58101;48.658;2.328;2023-09-12T11:54:19;22.80;99.90
70550;DHT22;58101;48.658;2.328;2023-09-12T11:56:48;22.70;99.90
70550;DHT22;58101;48.658;2.328;2023-09-12T11:59:15;22.70;99.90
70550;DHT22;58101;48.658;2.328;2023-09-12T12:01:45;22.70;99.90
70550;DHT22;58101;48.658;2.328;2023-09-12T12:04:12;22.70;99.90
70550;DHT22;58101;48.658;2.328;2023-09-12T12:06:37;22.60;99.90
70550;DHT22;58101;48.658;2.328;2023-09-12T12:09:03;22.60;99.90
70550;DHT22;58101;48.658;2.328;2023-09-12T12:11:30;22.50;99.90
70550;DHT22;58101;48.658;2.328;2023-09-12T12:13:57;22.50;99.90
70550;DHT22;58101;48.658;2.328;2023-09-12T12:16:24;22.40;99.90
70550;DHT22;58101;48.658;2.328;2023-09-12T12:18:50;22.40;99.90
70550;DHT22;58101;48.658;2.328;2023-09-12T12:21:20;22.50;99.90
70550;DHT22;58101;48.658;2.328;2023-09-12T12:23:45;22.40;99.90
70550;DHT22;58101;48.658;2.328;2023-09-12T12:26:11;22.50;99.90
70550;DHT22;58101;48.658;2.328;2023-09-12T12:28:37;22.50;99.90
70550;DHT22;58101;48.658;2.328;2023-09-12T12:31:04;22.50;99.90
70550;DHT22;58101;48.658;2.328;2023-09-12T12:33:30;22.50;99.90
70550;DHT22;58101;48.658;2.328;2023-09-12T12:36:03;22.50;99.90
70550;DHT22;58101;48.658;2.328;2023-09-12T12:38:37;22.50;99.90
70550;DHT22;58101;48.658;2.328;2023-09-12T12:41:03;22.50;99.90
70550;DHT22;58101;48.658;2.328;2023-09-12T12:43:30;22.40;99.90
70550;DHT22;58101;48.658;2.328;2023-09-12T12:45:57;22.30;99.90
70550;DHT22;58101;48.658;2.328;2023-09-12T12:48:33;22.30;99.90
70550;DHT22;58101;48.658;2.328;2023-09-12T12:51:11;22.30;99.90
70550;DHT22;58101;48.658;2.328;2023-09-12T12:53:41;22.20;99.90
70550;DHT22;58101;48.658;2.328;2023-09-12T12:56:07;22.20;99.90
70550;DHT22;58101;48.658;2.328;2023-09-12T12:58:33;22.10;99.90
70550;DHT22;58101;48.658;2.328;2023-09-12T13:01:00;22.20;99.90
70550;DHT22;58101;48.658;2.328;2023-09-12T13:03:26;22.10;99.90
70550;DHT22;58101;48.658;2.328;2023-09-12T13:05:52;22.10;99.90
70550;DHT22;58101;48.658;2.328;2023-09-12T13:08:17;22.10;99.90
70550;DHT22;58101;48.658;2.328;2023-09-12T13:10:43;22.00;99.90
70550;DHT22;58101;48.658;2.328;2023-09-12T13:13:09;22.00;99.90
70550;DHT22;58101;48.658;2.328;2023-09-12T13:15:35;22.00;99.90
70550;DHT22;58101;48.658;2.328;2023-09-12T13:18:01;22.00;99.90
70550;DHT22;58101;48.658;2.328;2023-09-12T13:20:26;22.00;99.90
70550;DHT22;58101;48.658;2.328;2023-09-12T13:22:52;22.00;99.90
70550;DHT22;58101;48.658;2.328;2023-09-12T13:25:18;22.00;99.90
70550;DHT22;58101;48.658;2.328;2023-09-12T13:27:46;22.00;99.90
70550;DHT22;58101;48.658;2.328;2023-09-12T13:30:11;22.00;99.90
70550;DHT22;58101;48.658;2.328;2023-09-12T13:32:37;21.90;99.90
70550;DHT22;58101;48.658;2.328;2023-09-12T13:35:03;21.90;99.90
70550;DHT22;58101;48.658;2.328;2023-09-12T13:37:29;21.90;99.90
70550;DHT22;58101;48.658;2.328;2023-09-12T13:39:56;21.90;99.90
70550;DHT22;58101;48.658;2.328;2023-09-12T13:42:21;21.90;99.90
70550;DHT22;58101;48.658;2.328;2023-09-12T13:44:48;21.90;99.90
70550;DHT22;58101;48.658;2.328;2023-09-12T13:47:13;21.90;99.90
70550;DHT22;58101;48.658;2.328;2023-09-12T13:49:46;21.90;99.90
70550;DHT22;58101;48.658;2.328;2023-09-12T13:52:12;21.90;99.90
70550;DHT22;58101;48.658;2.328;2023-09-12T13:54:38;21.90;99.90
70550;DHT22;58101;48.658;2.328;2023-09-12T13:57:03;21.90;99.90
70550;DHT22;58101;48.658;2.328;2023-09-12T13:59:29;22.00;99.90
70550;DHT22;58101;48.658;2.328;2023-09-12T14:01:55;22.00;99.90
70550;DHT22;58101;48.658;2.328;2023-09-12T14:04:20;22.00;99.90
70550;DHT22;58101;48.658;2.328;2023-09-12T14:06:46;22.10;99.90
70550;DHT22;58101;48.658;2.328;2023-09-12T14:09:12;22.10;99.90
70550;DHT22;58101;48.658;2.328;2023-09-12T14:11:37;22.20;99.90
70550;DHT22;58101;48.658;2.328;2023-09-12T14:14:06;22.20;99.90
70550;DHT22;58101;48.658;2.328;2023-09-12T14:16:31;22.30;99.90
70550;DHT22;58101;48.658;2.328;2023-09-12T14:18:57;22.40;99.90
70550;DHT22;58101;48.658;2.328;2023-09-12T14:21:23;22.40;99.90
70550;DHT22;58101;48.658;2.328;2023-09-12T14:23:48;22.50;99.90
70550;DHT22;58101;48.658;2.328;2023-09-12T14:26:14;22.50;99.90
70550;DHT22;58101;48.658;2.328;2023-09-12T14:28:40;22.60;99.90
70550;DHT22;58101;48.658;2.328;2023-09-12T14:31:06;22.60;99.90
70550;DHT22;58101;48.658;2.328;2023-09-12T14:33:38;22.60;99.90
70550;DHT22;58101;48.658;2.328;2023-09-12T14:36:07;22.60;99.90
70550;DHT22;58101;48.658;2.328;2023-09-12T14:38:32;22.60;99.90
70550;DHT22;58101;48.658;2.328;2023-09-12T14:40:58;22.50;99.90
70550;DHT22;58101;48.658;2.328;2023-09-12T14:43:24;22.50;99.90
70550;DHT22;58101;48.658;2.328;2023-09-12T14:45:49;22.40;99.90
70550;DHT22;58101;48.658;2.328;2023-09-12T14:48:15;22.30;99.90
70550;DHT22;58101;48.658;2.328;2023-09-12T14:50:41;22.20;99.90
70550;DHT22;58101;48.658;2.328;2023-09-12T14:53:06;22.10;99.90
70550;DHT22;58101;48.658;2.328;2023-09-12T14:55:32;22.00;99.90
70550;DHT22;58101;48.658;2.328;2023-09-12T14:57:58;21.90;99.90
70550;DHT22;58101;48.658;2.328;2023-09-12T15:00:24;21.80;99.90
70550;DHT22;58101;48.658;2.328;2023-09-12T15:02:50;21.80;99.90
70550;DHT22;58101;48.658;2.328;2023-09-12T15:05:16;21.60;99.90
70550;DHT22;58101;48.658;2.328;2023-09-12T15:07:42;21.60;99.90
70550;DHT22;58101;48.658;2.328;2023-09-12T15:10:08;21.40;99.90
70550;DHT22;58101;48.658;2.328;2023-09-12T15:12:33;21.50;99.90
70550;DHT22;58101;48.658;2.328;2023-09-12T15:14:59;21.50;99.90
70550;DHT22;58101;48.658;2.328;2023-09-12T15:17:25;21.50;99.90
70550;DHT22;58101;48.658;2.328;2023-09-12T15:19:50;21.60;99.90
70550;DHT22;58101;48.658;2.328;2023-09-12T15:22:16;21.60;99.90
70550;DHT22;58101;48.658;2.328;2023-09-12T15:24:42;21.60;99.90
70550;DHT22;58101;48.658;2.328;2023-09-12T15:27:07;21.60;99.90
70550;DHT22;58101;48.658;2.328;2023-09-12T15:29:33;21.60;99.90
70550;DHT22;58101;48.658;2.328;2023-09-12T15:31:59;21.60;99.90
70550;DHT22;58101;48.658;2.328;2023-09-12T15:34:26;21.60;99.90
70550;DHT22;58101;48.658;2.328;2023-09-12T15:37:12;21.70;99.90
70550;DHT22;58101;48.658;2.328;2023-09-12T15:39:38;21.60;99.90